Airport View

Enter AWOS ICAO identifier for current METAR.

ex. KFNL

KAAO 191954Z AUTO 18007KT 10SM CLR 34/24 A2995 RMK AO2 SLP123 T03440244

19 Aug 2019 20:25

Frequency: 134.025

Phone: 316-636-2541

Other Area AWOS: KBEC - K1K1 - KIAB - K3AU

TAF KIAB 191000Z 1910/2016 VRB06KT 9999 SKC QNH2992INS BECMG 1920/1921 19010G15KT 9999 SKC QNH2987INS TX37/1921Z TN24/1912Z